Time;durP1;ratioP1;P1;durP2;ratioP2;P2;SDS_P1;SDS_P2;PMS_P1;PMS_P2;Temp;Humidity;BMP_temperature;BMP_pressure;BME280_temperature;BME280_humidity;BME280_pressure;Samples;Min_cycle;Max_cycle;Signal;HPM_P1;HPM_P2
2021/08/10 00:00:17;;;;;;;;;;;;;;;23.80;59.97;99829.22;2081754;28;19966;-42
2021/08/10 00:01:17;;;;;;;;;;;;;;;23.81;59.96;99825.41;2083093;28;19924;-44
2021/08/10 00:02:18;;;;;;;;;;;;;;;23.80;60.08;99826.47;2084256;28;19923;-42
2021/08/10 00:03:18;;;;;;;;;;;;;;;23.80;60.23;99831.97;2083527;28;20960;-44
2021/08/10 00:04:19;;;;;;;;;;;;;;;23.80;60.31;99827.31;2082067;28;19927;-42
2021/08/10 00:05:19;;;;;;;;;;;;;;;23.80;60.08;99832.84;2082851;28;20097;-42
2021/08/10 00:06:19;;;;;;;;;;;;;;;23.83;60.09;99828.84;2085864;28;20278;-43
2021/08/10 00:07:20;;;;;;;;;;;;;;;23.84;60.04;99831.44;2083060;28;19916;-42
2021/08/10 00:08:21;;;;;;;;;;;;;;;23.82;60.21;99832.66;2082527;28;20619;-42
2021/08/10 00:09:21;;;;;;;;;;;;;;;23.84;59.98;99830.56;2086247;28;19920;-42
2021/08/10 00:10:21;;;;;;;;;;;;;;;23.87;60.03;99833.78;2083396;28;19920;-42
2021/08/10 00:11:22;;;;;;;;;;;;;;;23.86;60.06;99837.59;2083807;28;19947;-42
2021/08/10 00:12:22;;;;;;;;;;;;;;;23.88;59.97;99834.63;2083830;28;19912;-45
2021/08/10 00:13:23;;;;;;;;;;;;;;;23.85;60.04;99838.63;2082667;28;19931;-41
2021/08/10 00:14:24;;;;;;;;;;;;;;;23.84;59.96;99842.44;2081098;28;20234;-42
2021/08/10 00:15:24;;;;;;;;;;;;;;;23.86;60.08;99840.34;2081720;28;19913;-42
2021/08/10 00:16:26;;;;;;;;;;;;;;;23.86;60.00;99832.09;2082328;28;19941;-42
2021/08/10 00:17:27;;;;;;;;;;;;;;;23.89;60.01;99841.88;2082613;28;19917;-44
2021/08/10 00:18:27;;;;;;;;;;;;;;;23.88;59.93;99841.00;2082976;28;19989;-42
2021/08/10 00:19:28;;;;;;;;;;;;;;;23.85;59.97;99833.13;2086181;28;19965;-41
2021/08/10 00:20:28;;;;;;;;;;;;;;;23.85;60.05;99835.88;2082007;28;20003;-43
2021/08/10 00:21:28;;;;;;;;;;;;;;;23.83;60.02;99832.44;2082044;28;20421;-42
2021/08/10 00:22:28;;;;;;;;;;;;;;;23.83;60.14;99837.94;2084589;28;19921;-43
2021/08/10 00:23:29;;;;;;;;;;;;;;;23.83;60.26;99831.59;2083652;28;19916;-43
2021/08/10 00:24:29;;;;;;;;;;;;;;;23.86;60.25;99837.59;2081171;28;19963;-44
2021/08/10 00:25:30;;;;;;;;;;;;;;;23.88;60.05;99840.16;2083242;28;19920;-43
2021/08/10 00:26:31;;;;;;;;;;;;;;;23.85;60.12;99833.13;2079041;28;19924;-43
2021/08/10 00:27:31;;;;;;;;;;;;;;;23.86;60.18;99832.09;2084928;28;19920;-42
2021/08/10 00:28:31;;;;;;;;;;;;;;;23.83;60.08;99837.94;2083035;28;19923;-44
2021/08/10 00:29:32;;;;;;;;;;;;;;;23.84;60.20;99836.94;2084274;28;19920;-44
2021/08/10 00:30:32;;;;;;;;;;;;;;;23.84;60.42;99830.56;2082432;28;19926;-44
2021/08/10 00:31:32;;;;;;;;;;;;;;;23.81;60.38;99842.78;2083763;28;19917;-42
2021/08/10 00:32:33;;;;;;;;;;;;;;;23.84;60.16;99842.44;2083107;28;19928;-43
2021/08/10 00:33:33;;;;;;;;;;;;;;;23.85;60.03;99835.03;2083342;28;20236;-43
2021/08/10 00:34:33;;;;;;;;;;;;;;;23.84;60.16;99833.31;2082429;28;20343;-43
2021/08/10 00:35:34;;;;;;;;;;;;;;;23.83;60.14;99837.09;2080773;28;20461;-44
2021/08/10 00:36:35;;;;;;;;;;;;;;;23.84;60.15;99836.09;2081177;28;19920;-44
2021/08/10 00:37:35;;;;;;;;;;;;;;;23.84;60.08;99831.44;2084583;28;19920;-43
2021/08/10 00:38:36;;;;;;;;;;;;;;;23.83;60.18;99832.44;2082607;28;20421;-43
2021/08/10 00:39:36;;;;;;;;;;;;;;;23.83;60.22;99837.94;2078658;28;19921;-43
2021/08/10 00:40:39;;;;;;;;;;;;;;;23.86;60.05;99831.22;2080378;28;19921;-43
2021/08/10 00:41:40;;;;;;;;;;;;;;;23.84;60.21;99834.19;2079709;28;20083;-43
2021/08/10 00:42:41;;;;;;;;;;;;;;;23.83;60.24;99831.59;2080085;28;19927;-42
2021/08/10 00:43:42;;;;;;;;;;;;;;;23.85;60.08;99835.88;2080238;28;19922;-43
2021/08/10 00:44:42;;;;;;;;;;;;;;;23.85;60.07;99832.28;2083347;28;19993;-42
2021/08/10 00:45:42;;;;;;;;;;;;;;;23.85;60.17;99830.38;2083429;28;20053;-42
2021/08/10 00:46:43;;;;;;;;;;;;;;;23.84;60.17;99834.19;2082304;28;19929;-42
2021/08/10 00:47:43;;;;;;;;;;;;;;;23.85;60.29;99829.53;2084099;28;19943;-42
2021/08/10 00:48:44;;;;;;;;;;;;;;;23.85;60.35;99830.38;2081703;28;19924;-42
2021/08/10 00:49:44;;;;;;;;;;;;;;;23.84;60.22;99828.66;2082602;28;19920;-42
2021/08/10 00:50:44;;;;;;;;;;;;;;;23.82;60.38;99836.25;2078857;28;19927;-41
2021/08/10 00:51:45;;;;;;;;;;;;;;;23.84;60.46;99828.66;2081483;28;19986;-42
2021/08/10 00:52:46;;;;;;;;;;;;;;;23.85;60.19;99824.88;2083783;28;19939;-42
2021/08/10 00:53:46;;;;;;;;;;;;;;;23.86;60.19;99825.72;2080173;28;19959;-42
2021/08/10 00:54:47;;;;;;;;;;;;;;;23.86;60.15;99828.47;2081102;28;20894;-44
2021/08/10 00:55:47;;;;;;;;;;;;;;;23.85;60.24;99824.00;2078370;28;19932;-43
2021/08/10 00:56:48;;;;;;;;;;;;;;;23.85;60.45;99818.50;2081367;28;20271;-42
2021/08/10 00:57:48;;;;;;;;;;;;;;;23.82;60.33;99819.75;2081320;28;20443;-41
2021/08/10 00:58:48;;;;;;;;;;;;;;;23.83;60.37;99815.94;2078192;28;19970;-44
2021/08/10 00:59:49;;;;;;;;;;;;;;;23.83;60.28;99815.94;2078965;28;19932;-44
2021/08/10 01:00:49;;;;;;;;;;;;;;;23.84;60.24;99814.91;2081714;28;20203;-44
2021/08/10 01:01:49;;;;;;;;;;;;;;;23.84;60.39;99816.81;2083661;28;20682;-43
2021/08/10 01:02:50;;;;;;;;;;;;;;;23.82;60.33;99814.25;2081895;28;19948;-42
2021/08/10 01:03:50;;;;;;;;;;;;;;;23.83;60.28;99818.69;2081209;28;20475;-45
2021/08/10 01:04:50;;;;;;;;;;;;;;;23.84;60.31;99812.16;2083019;28;19913;-43
2021/08/10 01:05:51;;;;;;;;;;;;;;;23.85;60.35;99819.34;2079099;28;20492;-42
2021/08/10 01:07:04;;;;;;;;;;;;;;;23.85;60.32;99818.50;2084489;28;20261;-42
2021/08/10 01:08:30;;;;;;;;;;;;;;;23.84;60.31;99814.91;2083344;28;20772;-42
2021/08/10 01:09:49;;;;;;;;;;;;;;;23.85;60.23;99819.34;2081685;28;19927;-43
2021/08/10 01:11:07;;;;;;;;;;;;;;;23.83;60.39;99813.19;2080181;28;19939;-42
2021/08/10 01:12:16;;;;;;;;;;;;;;;23.82;60.40;99814.25;2080486;28;20399;-43
2021/08/10 01:13:20;;;;;;;;;;;;;;;23.83;60.13;99804.94;2082987;28;20273;-43
2021/08/10 01:14:26;;;;;;;;;;;;;;;23.83;60.30;99813.19;2081830;28;19977;-44
2021/08/10 01:15:30;;;;;;;;;;;;;;;23.85;60.17;99811.09;2081677;28;19927;-42
2021/08/10 01:16:47;;;;;;;;;;;;;;;23.85;60.23;99811.09;2076800;28;19916;-42
2021/08/10 01:17:57;;;;;;;;;;;;;;;23.87;60.26;99808.16;2084435;28;19920;-43
2021/08/10 01:19:16;;;;;;;;;;;;;;;23.85;60.29;99808.34;2079810;28;19979;-44
2021/08/10 01:20:35;;;;;;;;;;;;;;;23.84;60.31;99806.66;2077146;28;19916;-46
2021/08/10 01:21:37;;;;;;;;;;;;;;;23.85;60.29;99802.00;2082633;28;20329;-48
2021/08/10 01:22:40;;;;;;;;;;;;;;;23.85;60.26;99802.84;2082392;28;19916;-45
2021/08/10 01:23:41;;;;;;;;;;;;;;;23.84;60.30;99803.91;2083650;28;19916;-41
2021/08/10 01:24:47;;;;;;;;;;;;;;;23.84;60.32;99794.78;2082634;28;20101;-41
2021/08/10 01:25:47;;;;;;;;;;;;;;;23.82;60.27;99805.97;2082622;28;19916;-41
2021/08/10 01:26:47;;;;;;;;;;;;;;;23.83;60.38;99795.81;2081659;28;19908;-43
2021/08/10 01:27:48;;;;;;;;;;;;;;;23.83;60.53;99793.91;2080855;28;20343;-41
2021/08/10 01:29:09;;;;;;;;;;;;;;;23.83;60.72;99798.56;2081667;28;19916;-41
2021/08/10 01:30:15;;;;;;;;;;;;;;;23.83;60.47;99795.81;2080639;28;19920;-47
2021/08/10 01:31:15;;;;;;;;;;;;;;;23.82;60.44;99794.97;2081309;28;19924;-41
2021/08/10 01:32:16;;;;;;;;;;;;;;;23.82;60.50;99792.22;2073028;28;20510;-40
2021/08/10 01:33:16;;;;;;;;;;;;;;;23.82;60.48;99797.72;2081231;28;19920;-41
2021/08/10 01:34:19;;;;;;;;;;;;;;;23.81;60.62;99796.00;2078727;28;20249;-41
2021/08/10 01:35:20;;;;;;;;;;;;;;;23.82;60.51;99788.63;2081048;28;19925;-42
2021/08/10 01:36:21;;;;;;;;;;;;;;;23.83;60.51;99793.91;2080836;28;19935;-42
2021/08/10 01:37:23;;;;;;;;;;;;;;;23.82;60.55;99786.72;2079859;28;19927;-41
2021/08/10 01:38:25;;;;;;;;;;;;;;;23.83;60.51;99793.91;2078669;28;20327;-41
2021/08/10 01:39:27;;;;;;;;;;;;;;;23.81;60.48;99790.50;2077364;28;19921;-41
2021/08/10 01:40:29;;;;;;;;;;;;;;;23.82;60.53;99783.13;2090368;28;19923;-42
2021/08/10 01:41:31;;;;;;;;;;;;;;;23.82;60.48;99786.72;2090034;28;19918;-42
2021/08/10 01:42:33;;;;;;;;;;;;;;;23.82;60.47;99780.34;2082420;28;19943;-40
2021/08/10 01:43:34;;;;;;;;;;;;;;;23.81;60.58;99782.22;2082667;28;20164;-41
2021/08/10 01:44:35;;;;;;;;;;;;;;;23.82;60.60;99778.47;2081254;28;20098;-40
2021/08/10 01:45:38;;;;;;;;;;;;;;;23.81;60.64;99779.47;2081044;28;19962;-40
2021/08/10 01:46:39;;;;;;;;;;;;;;;23.83;60.86;99782.91;2080920;28;19916;-42
2021/08/10 01:47:43;;;;;;;;;;;;;;;23.83;60.51;99782.91;2081230;28;20508;-40
2021/08/10 01:48:43;;;;;;;;;;;;;;;23.83;60.53;99773.81;2081138;28;19920;-41
2021/08/10 01:49:44;;;;;;;;;;;;;;;23.82;60.56;99775.69;2080170;28;20249;-41
2021/08/10 01:50:45;;;;;;;;;;;;;;;23.81;60.71;99773.13;2080608;28;20009;-40
2021/08/10 01:51:46;;;;;;;;;;;;;;;23.81;60.48;99778.63;2081828;28;20838;-41
2021/08/10 01:52:47;;;;;;;;;;;;;;;23.82;60.63;99781.22;2079057;28;20117;-40
2021/08/10 01:53:47;;;;;;;;;;;;;;;23.81;60.78;99773.13;2078140;28;20041;-41
2021/08/10 01:54:48;;;;;;;;;;;;;;;23.81;60.61;99781.38;2082827;28;19955;-40
2021/08/10 01:55:49;;;;;;;;;;;;;;;23.82;60.64;99775.69;2082049;28;19920;-41
2021/08/10 01:56:49;;;;;;;;;;;;;;;23.82;60.65;99786.72;2082013;28;20143;-41
2021/08/10 01:57:50;;;;;;;;;;;;;;;23.81;60.85;99779.47;2080163;28;19924;-41
2021/08/10 01:58:51;;;;;;;;;;;;;;;23.82;60.66;99783.13;2081864;28;19920;-40
2021/08/10 01:59:53;;;;;;;;;;;;;;;23.83;60.71;99777.41;2081140;28;20447;-40
2021/08/10 02:00:55;;;;;;;;;;;;;;;23.84;60.62;99779.13;2079486;28;19917;-40
2021/08/10 02:01:56;;;;;;;;;;;;;;;23.84;60.47;99778.28;2082667;28;19924;-42
2021/08/10 02:02:57;;;;;;;;;;;;;;;23.82;60.67;99783.97;2081584;28;19920;-40
2021/08/10 02:03:58;;;;;;;;;;;;;;;23.82;60.53;99772.94;2083026;28;19920;-39
2021/08/10 02:04:59;;;;;;;;;;;;;;;23.81;60.57;99771.22;2081733;28;19983;-39
2021/08/10 02:06:00;;;;;;;;;;;;;;;23.82;60.57;99774.84;2081287;28;19912;-39
2021/08/10 02:07:01;;;;;;;;;;;;;;;23.81;60.67;99768.47;2082656;28;20003;-40
2021/08/10 02:08:02;;;;;;;;;;;;;;;23.81;60.62;99768.47;2081723;28;20253;-41
2021/08/10 02:09:02;;;;;;;;;;;;;;;23.82;60.55;99770.19;2083012;28;19930;-41
2021/08/10 02:10:03;;;;;;;;;;;;;;;23.82;60.50;99770.19;2080820;28;19962;-42
2021/08/10 02:11:04;;;;;;;;;;;;;;;23.81;60.58;99771.22;2083758;28;19916;-41
2021/08/10 02:12:05;;;;;;;;;;;;;;;23.81;60.54;99773.97;2081830;28;19967;-41
2021/08/10 02:13:06;;;;;;;;;;;;;;;23.81;60.49;99768.47;2080725;28;20518;-40
2021/08/10 02:14:08;;;;;;;;;;;;;;;23.81;60.65;99773.97;2081266;28;20670;-40
2021/08/10 02:15:09;;;;;;;;;;;;;;;23.81;60.67;99768.47;2079576;28;20003;-43
2021/08/10 02:16:10;;;;;;;;;;;;;;;23.81;60.69;99767.63;2080958;28;20384;-41
2021/08/10 02:17:13;;;;;;;;;;;;;;;23.81;60.63;99773.13;2081578;28;20086;-43
2021/08/10 02:18:13;;;;;;;;;;;;;;;23.80;60.69;99764.03;2082099;28;19913;-43
2021/08/10 02:19:14;;;;;;;;;;;;;;;23.80;60.56;99769.53;2079373;28;20456;-42
2021/08/10 02:20:14;;;;;;;;;;;;;;;23.81;60.67;99778.63;2079904;28;19924;-43
2021/08/10 02:21:37;;;;;;;;;;;;;;;23.81;60.48;99779.47;2080005;28;20227;-43
2021/08/10 02:22:40;;;;;;;;;;;;;;;23.80;60.55;99772.28;2078906;28;19920;-42
2021/08/10 02:23:40;;;;;;;;;;;;;;;23.80;60.67;99772.28;2081162;28;20355;-43
2021/08/10 02:24:43;;;;;;;;;;;;;;;23.80;60.71;99771.44;2081350;28;20003;-46
2021/08/10 02:25:44;;;;;;;;;;;;;;;23.82;60.55;99775.69;2077003;28;19909;-46
2021/08/10 02:26:47;;;;;;;;;;;;;;;23.83;60.61;99771.91;2083246;28;19991;-43
2021/08/10 02:27:51;;;;;;;;;;;;;;;23.81;60.51;99782.22;2080849;28;19920;-43
2021/08/10 02:28:52;;;;;;;;;;;;;;;23.82;60.42;99770.19;2081106;28;19912;-43
2021/08/10 02:29:53;;;;;;;;;;;;;;;23.82;60.41;99783.97;2079991;28;20407;-43
2021/08/10 02:30:56;;;;;;;;;;;;;;;23.82;60.59;99769.34;2080595;28;19908;-45
2021/08/10 02:31:58;;;;;;;;;;;;;;;23.83;60.55;99777.41;2082803;28;19936;-43
2021/08/10 02:33:02;;;;;;;;;;;;;;;23.81;60.55;99773.97;2079816;28;19969;-41
2021/08/10 02:34:02;;;;;;;;;;;;;;;23.82;60.57;99775.69;2083182;28;20755;-42
2021/08/10 02:35:03;;;;;;;;;;;;;;;23.82;60.54;99781.22;2080021;28;21138;-41
2021/08/10 02:36:04;;;;;;;;;;;;;;;23.84;60.51;99781.88;2082555;28;19925;-42
2021/08/10 02:37:05;;;;;;;;;;;;;;;23.83;60.40;99776.56;2084015;28;19968;-42
2021/08/10 02:38:07;;;;;;;;;;;;;;;23.85;60.51;99777.22;2081828;28;19916;-43
2021/08/10 02:39:08;;;;;;;;;;;;;;;23.84;60.42;99770.88;2081745;28;19978;-42
2021/08/10 02:40:10;;;;;;;;;;;;;;;23.83;60.45;99777.41;2079636;28;19952;-43
2021/08/10 02:41:11;;;;;;;;;;;;;;;23.82;60.47;99770.19;2079260;28;19912;-43
2021/08/10 02:42:11;;;;;;;;;;;;;;;23.82;60.63;99770.19;2081912;28;19916;-43
2021/08/10 02:43:13;;;;;;;;;;;;;;;23.84;60.49;99772.78;2079697;28;19999;-42
2021/08/10 02:44:14;;;;;;;;;;;;;;;23.82;60.37;99767.44;2082588;28;19917;-42
2021/08/10 02:45:14;;;;;;;;;;;;;;;23.82;60.63;99769.34;2079747;28;20376;-42
2021/08/10 02:46:14;;;;;;;;;;;;;;;23.83;60.33;99763.63;2079501;28;20023;-43
2021/08/10 02:47:16;;;;;;;;;;;;;;;23.82;60.53;99759.19;2082446;28;19962;-43
2021/08/10 02:48:16;;;;;;;;;;;;;;;23.82;60.55;99770.19;2080681;28;19925;-43
2021/08/10 02:49:17;;;;;;;;;;;;;;;23.82;60.55;99764.69;2080650;28;20227;-43
2021/08/10 02:50:18;;;;;;;;;;;;;;;23.82;60.53;99759.19;2081562;28;19964;-43
2021/08/10 02:51:18;;;;;;;;;;;;;;;23.82;60.60;99761.94;2082058;28;19917;-42
2021/08/10 02:52:18;;;;;;;;;;;;;;;23.85;60.62;99763.47;2081838;28;19973;-43
2021/08/10 02:53:19;;;;;;;;;;;;;;;23.84;60.46;99762.63;2080602;28;20824;-43
2021/08/10 02:54:19;;;;;;;;;;;;;;;23.83;60.44;99766.38;2082645;28;19979;-44
2021/08/10 02:55:21;;;;;;;;;;;;;;;23.83;60.33;99766.38;2081290;28;20025;-44
2021/08/10 02:56:22;;;;;;;;;;;;;;;23.83;60.22;99766.38;2081057;28;19939;-43
2021/08/10 02:57:33;;;;;;;;;;;;;;;23.84;60.39;99762.63;2078278;28;19925;-44
2021/08/10 02:58:38;;;;;;;;;;;;;;;23.83;60.44;99769.16;2082343;28;20335;-43
2021/08/10 02:59:41;;;;;;;;;;;;;;;23.83;60.37;99765.53;2079150;28;19930;-43
2021/08/10 03:00:45;;;;;;;;;;;;;;;23.83;60.52;99765.53;2079136;28;19928;-43
2021/08/10 03:02:06;;;;;;;;;;;;;;;23.82;60.47;99770.19;2083303;28;19920;-43
2021/08/10 03:03:12;;;;;;;;;;;;;;;23.79;60.57;99767.84;2077978;28;19920;-44
2021/08/10 03:04:13;;;;;;;;;;;;;;;23.74;60.67;99762.88;2070729;28;19924;-44
2021/08/10 03:05:15;;;;;;;;;;;;;;;23.74;60.53;99762.03;2082808;28;19916;-43
2021/08/10 03:06:17;;;;;;;;;;;;;;;23.71;60.44;99762.38;2079181;28;20243;-44
2021/08/10 03:07:18;;;;;;;;;;;;;;;23.69;60.52;99758.94;2082368;28;20173;-44
2021/08/10 03:08:22;;;;;;;;;;;;;;;23.66;60.34;99767.59;2078823;28;19909;-44
2021/08/10 03:09:22;;;;;;;;;;;;;;;23.61;60.34;99764.53;2078064;28;19988;-45
2021/08/10 03:10:29;;;;;;;;;;;;;;;23.61;60.44;99759.03;2080310;28;20182;-44
2021/08/10 03:11:37;;;;;;;;;;;;;;;23.58;60.52;99763.03;2079882;28;19942;-43
2021/08/10 03:12:40;;;;;;;;;;;;;;;23.58;60.55;99756.66;2081601;28;19920;-44
2021/08/10 03:13:44;;;;;;;;;;;;;;;23.53;60.80;99762.72;2080141;28;19951;-44
2021/08/10 03:14:46;;;;;;;;;;;;;;;23.50;61.11;99761.22;2079347;28;19921;-45
2021/08/10 03:15:47;;;;;;;;;;;;;;;23.45;61.12;99763.66;2082600;28;19920;-43
2021/08/10 03:16:48;;;;;;;;;;;;;;;23.45;61.20;99762.81;2083771;28;20229;-43
2021/08/10 03:17:51;;;;;;;;;;;;;;;23.44;61.07;99761.94;2076695;28;20875;-44
2021/08/10 03:18:52;;;;;;;;;;;;;;;23.41;61.03;99762.31;2079187;28;20140;-43
2021/08/10 03:19:54;;;;;;;;;;;;;;;23.38;61.22;99759.94;2081736;28;20089;-44
2021/08/10 03:20:59;;;;;;;;;;;;;;;23.38;61.33;99761.84;2076951;28;19924;-43
2021/08/10 03:22:00;;;;;;;;;;;;;;;23.37;61.40;99757.38;2081821;28;19993;-44
2021/08/10 03:23:01;;;;;;;;;;;;;;;23.36;61.42;99759.28;2083065;28;19920;-43
2021/08/10 03:24:04;;;;;;;;;;;;;;;23.38;61.35;99756.34;2080027;28;20271;-44
2021/08/10 03:25:05;;;;;;;;;;;;;;;23.38;61.40;99756.34;2082348;28;19920;-44
2021/08/10 03:26:07;;;;;;;;;;;;;;;23.37;61.44;99761.00;2080517;28;20318;-43
2021/08/10 03:27:08;;;;;;;;;;;;;;;23.38;61.22;99768.19;2082750;28;19928;-44
2021/08/10 03:28:10;;;;;;;;;;;;;;;23.36;61.30;99759.28;2084465;28;19921;-46
2021/08/10 03:29:11;;;;;;;;;;;;;;;23.35;61.24;99757.56;2074740;28;19938;-45
2021/08/10 03:30:12;;;;;;;;;;;;;;;23.34;61.29;99761.34;2082034;28;20699;-43
2021/08/10 03:31:14;;;;;;;;;;;;;;;23.32;61.34;99757.94;2085292;28;19924;-43
2021/08/10 03:32:15;;;;;;;;;;;;;;;23.31;61.27;99757.06;2081837;28;19960;-44
2021/08/10 03:33:16;;;;;;;;;;;;;;;23.30;61.29;99758.13;2083169;28;19925;-44
2021/08/10 03:34:18;;;;;;;;;;;;;;;23.31;61.33;99761.72;2087129;28;19924;-44
2021/08/10 03:35:19;;;;;;;;;;;;;;;23.30;61.35;99754.53;2081985;28;20015;-44
2021/08/10 03:36:20;;;;;;;;;;;;;;;23.28;61.45;99757.47;2084140;28;19920;-43
2021/08/10 03:37:20;;;;;;;;;;;;;;;23.28;61.38;99762.09;2084735;28;20205;-45
2021/08/10 03:38:21;;;;;;;;;;;;;;;23.28;61.37;99762.09;2081774;28;20489;-45
2021/08/10 03:39:22;;;;;;;;;;;;;;;23.29;61.34;99758.31;2084774;28;19990;-45
2021/08/10 03:40:22;;;;;;;;;;;;;;;23.27;61.47;99758.50;2084948;28;19927;-45
2021/08/10 03:41:23;;;;;;;;;;;;;;;23.27;61.26;99755.75;2083181;28;19912;-44
2021/08/10 03:42:24;;;;;;;;;;;;;;;23.27;61.37;99761.25;2085567;28;19921;-44
2021/08/10 03:43:25;;;;;;;;;;;;;;;23.28;61.29;99762.09;2083770;28;19947;-44
2021/08/10 03:44:26;;;;;;;;;;;;;;;23.27;61.30;99755.75;2079113;28;20275;-45
2021/08/10 03:45:26;;;;;;;;;;;;;;;23.28;61.34;99756.59;2084935;28;19917;-44
2021/08/10 03:46:31;;;;;;;;;;;;;;;23.26;61.25;99758.69;2083580;28;19924;-45
2021/08/10 03:47:32;;;;;;;;;;;;;;;23.28;61.13;99756.59;2084779;28;19948;-43
2021/08/10 03:48:34;;;;;;;;;;;;;;;23.27;61.21;99754.88;2083721;28;20051;-44
2021/08/10 03:49:35;;;;;;;;;;;;;;;23.28;61.21;99756.59;2079658;28;19921;-43
2021/08/10 03:50:36;;;;;;;;;;;;;;;23.28;61.26;99756.59;2086011;28;20364;-45
2021/08/10 03:51:36;;;;;;;;;;;;;;;23.26;61.31;99758.69;2082487;28;19921;-44
2021/08/10 03:52:36;;;;;;;;;;;;;;;23.27;61.35;99763.13;2079517;28;19921;-43
2021/08/10 03:53:37;;;;;;;;;;;;;;;23.28;61.09;99759.34;2083931;28;20374;-44
2021/08/10 03:54:38;;;;;;;;;;;;;;;23.27;61.15;99768.63;2080828;28;19935;-43
2021/08/10 03:55:38;;;;;;;;;;;;;;;23.26;61.16;99758.69;2085147;28;19920;-44
2021/08/10 03:56:39;;;;;;;;;;;;;;;23.25;61.29;99767.97;2082583;28;19927;-44
2021/08/10 03:57:39;;;;;;;;;;;;;;;23.25;61.17;99766.09;2082778;28;20007;-44
2021/08/10 03:58:41;;;;;;;;;;;;;;;23.25;61.17;99767.97;2084161;28;19947;-45
2021/08/10 03:59:42;;;;;;;;;;;;;;;23.24;61.29;99771.75;2081794;28;19927;-44
2021/08/10 04:00:43;;;;;;;;;;;;;;;23.25;61.34;99767.97;2083362;28;19928;-45
2021/08/10 04:01:45;;;;;;;;;;;;;;;23.24;61.21;99769.00;2084996;28;19927;-44
2021/08/10 04:02:46;;;;;;;;;;;;;;;23.25;61.30;99778.97;2080902;28;19921;-43
2021/08/10 04:03:47;;;;;;;;;;;;;;;23.24;61.19;99772.59;2086216;28;19970;-43
2021/08/10 04:04:51;;;;;;;;;;;;;;;23.25;61.24;99773.47;2083171;28;19920;-43
2021/08/10 04:05:52;;;;;;;;;;;;;;;23.24;61.30;99774.50;2086194;28;19931;-44
2021/08/10 04:06:53;;;;;;;;;;;;;;;23.26;61.24;99780.69;2080909;28;20262;-45
2021/08/10 04:07:53;;;;;;;;;;;;;;;23.24;61.21;99774.50;2083654;28;20110;-44
2021/08/10 04:08:53;;;;;;;;;;;;;;;23.24;61.34;99782.75;2083456;28;20183;-44
2021/08/10 04:09:54;;;;;;;;;;;;;;;23.23;61.25;99779.16;2080340;28;19924;-44
2021/08/10 04:10:55;;;;;;;;;;;;;;;23.23;61.29;99778.31;2081899;28;20142;-44
2021/08/10 04:11:55;;;;;;;;;;;;;;;23.23;61.18;99789.31;2084694;28;20608;-43
2021/08/10 04:12:56;;;;;;;;;;;;;;;23.22;61.30;99779.34;2083795;28;19942;-45
2021/08/10 04:13:56;;;;;;;;;;;;;;;23.23;61.20;99786.56;2083048;28;19924;-44
2021/08/10 04:14:57;;;;;;;;;;;;;;;23.21;61.20;99783.97;2084619;28;19920;-43
2021/08/10 04:15:58;;;;;;;;;;;;;;;23.20;61.19;99782.28;2081898;28;19912;-43
2021/08/10 04:17:00;;;;;;;;;;;;;;;23.21;61.16;99783.13;2084499;28;19920;-44
2021/08/10 04:18:02;;;;;;;;;;;;;;;23.21;61.16;99783.97;2083875;28;20027;-44
2021/08/10 04:19:03;;;;;;;;;;;;;;;23.20;61.28;99781.41;2080256;28;20253;-44
2021/08/10 04:20:04;;;;;;;;;;;;;;;23.20;61.19;99782.28;2083984;28;19924;-45
2021/08/10 04:21:04;;;;;;;;;;;;;;;23.20;61.27;99778.66;2085203;28;19920;-44
2021/08/10 04:22:05;;;;;;;;;;;;;;;23.21;61.12;99783.13;2081730;28;20272;-43
2021/08/10 04:23:05;;;;;;;;;;;;;;;23.21;61.29;99780.38;2084630;28;20318;-43
2021/08/10 04:24:06;;;;;;;;;;;;;;;23.20;61.24;99773.16;2077091;28;19925;-44
2021/08/10 04:25:06;;;;;;;;;;;;;;;23.20;61.15;99781.41;2083987;28;19912;-43
2021/08/10 04:26:06;;;;;;;;;;;;;;;23.20;61.15;99781.41;2082105;28;20278;-44
2021/08/10 04:27:07;;;;;;;;;;;;;;;23.20;61.28;99781.41;2087132;28;20285;-43
2021/08/10 04:28:07;;;;;;;;;;;;;;;23.20;61.13;99770.41;2078449;28;19920;-43
2021/08/10 04:29:08;;;;;;;;;;;;;;;23.20;61.14;99781.41;2081520;28;20318;-44
2021/08/10 04:30:08;;;;;;;;;;;;;;;23.20;61.29;99775.91;2085447;28;20012;-44
2021/08/10 04:31:09;;;;;;;;;;;;;;;23.20;61.29;99770.41;2084916;28;20021;-44
2021/08/10 04:32:09;;;;;;;;;;;;;;;23.20;61.29;99782.28;2082671;28;19916;-45
2021/08/10 04:33:10;;;;;;;;;;;;;;;23.20;61.30;99782.28;2079155;28;20216;-45
2021/08/10 04:34:10;;;;;;;;;;;;;;;23.21;61.19;99777.63;2084086;28;19924;-44
2021/08/10 04:35:10;;;;;;;;;;;;;;;23.21;61.24;99783.97;2083646;28;19924;-44
2021/08/10 04:36:10;;;;;;;;;;;;;;;23.20;61.34;99774.03;2083019;28;20243;-44
2021/08/10 04:37:11;;;;;;;;;;;;;;;23.20;61.30;99771.28;2083025;28;19920;-45
2021/08/10 04:38:11;;;;;;;;;;;;;;;23.20;61.15;99781.41;2079841;28;19909;-45
2021/08/10 04:39:11;;;;;;;;;;;;;;;23.19;61.21;99783.31;2079552;28;20037;-44
2021/08/10 04:40:12;;;;;;;;;;;;;;;23.18;61.20;99778.88;2081086;28;20226;-44
2021/08/10 04:41:12;;;;;;;;;;;;;;;23.20;61.24;99775.91;2084452;28;19920;-43
2021/08/10 04:42:12;;;;;;;;;;;;;;;23.19;61.24;99782.47;2084381;28;19920;-45
2021/08/10 04:43:13;;;;;;;;;;;;;;;23.19;61.31;99779.72;2083464;28;19965;-44
2021/08/10 04:44:13;;;;;;;;;;;;;;;23.18;61.15;99780.75;2085660;28;19943;-44
2021/08/10 04:45:13;;;;;;;;;;;;;;;23.18;61.28;99778.00;2080891;28;19928;-44
2021/08/10 04:46:14;;;;;;;;;;;;;;;23.17;61.16;99777.13;2083349;28;20233;-43
2021/08/10 04:47:14;;;;;;;;;;;;;;;23.18;61.17;99778.00;2082942;28;20715;-44
2021/08/10 04:48:14;;;;;;;;;;;;;;;23.18;61.13;99769.75;2079282;28;19937;-44
2021/08/10 04:49:15;;;;;;;;;;;;;;;23.19;61.15;99771.47;2078789;28;20015;-46
2021/08/10 04:50:15;;;;;;;;;;;;;;;23.19;61.22;99771.47;2083061;28;19969;-44
2021/08/10 04:51:16;;;;;;;;;;;;;;;23.18;61.15;99778.00;2084803;28;20131;-44
2021/08/10 04:52:16;;;;;;;;;;;;;;;23.18;61.23;99783.50;2084442;28;20344;-45
2021/08/10 04:53:16;;;;;;;;;;;;;;;23.17;61.29;99773.53;2081358;28;19955;-43
2021/08/10 04:54:16;;;;;;;;;;;;;;;23.17;61.17;99782.63;2087026;28;19920;-45
2021/08/10 04:55:17;;;;;;;;;;;;;;;23.18;61.37;99783.50;2081478;28;20254;-43
2021/08/10 04:56:17;;;;;;;;;;;;;;;23.17;61.13;99779.88;2082866;28;20024;-43
2021/08/10 04:57:17;;;;;;;;;;;;;;;23.17;61.17;99787.28;2085348;28;20559;-44
2021/08/10 04:58:18;;;;;;;;;;;;;;;23.17;61.25;99785.38;2082346;28;19916;-44
2021/08/10 04:59:18;;;;;;;;;;;;;;;23.17;61.06;99782.63;2082676;28;19924;-45
2021/08/10 05:00:18;;;;;;;;;;;;;;;23.17;61.14;99785.38;2084877;28;19920;-44
2021/08/10 05:01:19;;;;;;;;;;;;;;;23.17;61.01;99779.03;2082456;28;20025;-45
2021/08/10 05:02:20;;;;;;;;;;;;;;;23.16;61.11;99777.34;2084240;28;19935;-43
2021/08/10 05:03:20;;;;;;;;;;;;;;;23.17;61.25;99785.38;2082879;28;19908;-44
2021/08/10 05:04:20;;;;;;;;;;;;;;;23.17;61.10;99776.28;2081887;28;20431;-44
2021/08/10 05:05:20;;;;;;;;;;;;;;;23.17;60.96;99787.28;2084627;28;20483;-45
2021/08/10 05:06:21;;;;;;;;;;;;;;;23.16;61.08;99780.94;2080995;28;19908;-46
2021/08/10 05:07:21;;;;;;;;;;;;;;;23.16;61.13;99780.09;2083750;28;19920;-44
2021/08/10 05:08:21;;;;;;;;;;;;;;;23.16;61.08;99785.59;2085011;28;20435;-43
2021/08/10 05:09:22;;;;;;;;;;;;;;;23.16;61.17;99782.84;2080463;28;19924;-47
2021/08/10 05:10:22;;;;;;;;;;;;;;;23.16;61.27;99775.44;2085298;28;19946;-43
2021/08/10 05:11:22;;;;;;;;;;;;;;;23.15;61.04;99781.09;2081338;28;19920;-44
2021/08/10 05:12:23;;;;;;;;;;;;;;;23.15;61.07;99778.34;2078775;28;19951;-45
2021/08/10 05:13:23;;;;;;;;;;;;;;;23.17;60.98;99781.78;2083610;28;19913;-44
2021/08/10 05:14:23;;;;;;;;;;;;;;;23.16;61.18;99780.09;2082126;28;20055;-45
2021/08/10 05:15:24;;;;;;;;;;;;;;;23.16;61.04;99788.34;2083970;28;20011;-44
2021/08/10 05:16:24;;;;;;;;;;;;;;;23.16;61.09;99785.59;2082500;28;19962;-44
2021/08/10 05:17:24;;;;;;;;;;;;;;;23.15;61.08;99786.59;2080536;28;20211;-43
2021/08/10 05:18:25;;;;;;;;;;;;;;;23.15;61.05;99783.84;2084501;28;19974;-43
2021/08/10 05:19:25;;;;;;;;;;;;;;;23.15;61.07;99778.34;2082751;28;20376;-45
2021/08/10 05:20:25;;;;;;;;;;;;;;;23.15;61.09;99783.84;2079484;28;20009;-45
2021/08/10 05:21:25;;;;;;;;;;;;;;;23.16;61.04;99783.69;2084457;28;19920;-44